Aeneas, Washington
Current Conditions -  °F | °C
As of 9:53 AM on Sunday 21 Dec 2014 (Local Time) from KOMK Reporting Station
Clear Clear  
Wind Chill: 34°   Ceiling: Unl
Heat Index: 40°   Visibility: 10mi
Dew Point: 35°   Wind: 9mph
Humidity: 83%   Direction: 140°SE
Pressure: 29.76"   Gusts: NA
Location:  48.6708°N, 119.278°W
Report Text: KOMK 211753Z AUTO 14008KT 10SM CLR 04/02 A2976 RMK AO2 SLP087 T00440017 10044 20000 53033
Loading
Personal Weather Stations






























Interactive Weather Map New forecast layout! Learn more

10-Day Weather Forecast

Advertisements
Track Severe Weather on mobile